Time;durP1;ratioP1;P1;durP2;ratioP2;P2;SDS_P1;SDS_P2;PMS_P1;PMS_P2;Temp;Humidity;BMP_temperature;BMP_pressure;BME280_temperature;BME280_humidity;BME280_pressure;Samples;Min_cycle;Max_cycle;Signal;HPM_P1;HPM_P2
2021/08/28 00:00:55;;;;;;;4.95;2.95;;;14.80;99.90;;;;;;5054340;28;20061;-73
2021/08/28 00:03:22;;;;;;;3.92;3.10;;;14.90;99.90;;;;;;5054225;28;20046;-72
2021/08/28 00:05:48;;;;;;;3.20;2.90;;;14.80;99.90;;;;;;5053551;28;20052;-73
2021/08/28 00:08:14;;;;;;;5.35;3.47;;;14.90;99.90;;;;;;5054128;28;20430;-73
2021/08/28 00:10:41;;;;;;;6.18;3.10;;;15.00;99.90;;;;;;5036054;28;20021;-72
2021/08/28 00:13:07;;;;;;;3.60;3.30;;;15.00;99.90;;;;;;5054348;28;20029;-73
2021/08/28 00:15:33;;;;;;;3.53;3.05;;;14.90;99.90;;;;;;5053544;28;20074;-73
2021/08/28 00:17:59;;;;;;;4.70;2.63;;;14.90;99.90;;;;;;5054112;28;20128;-72
2021/08/28 00:20:25;;;;;;;4.40;3.25;;;14.80;99.90;;;;;;5054071;28;20036;-72
2021/08/28 00:22:51;;;;;;;6.65;2.78;;;14.60;99.90;;;;;;5053970;28;20384;-75
2021/08/28 00:25:17;;;;;;;3.28;2.97;;;14.40;99.90;;;;;;5052933;28;20032;-73
2021/08/28 00:27:43;;;;;;;3.47;3.15;;;14.50;99.90;;;;;;5053949;28;20021;-73
2021/08/28 00:30:11;;;;;;;5.68;3.33;;;14.70;99.90;;;;;;5035504;28;20033;-74
2021/08/28 00:32:37;;;;;;;4.70;3.22;;;14.70;99.90;;;;;;5054137;28;20029;-74
2021/08/28 00:35:04;;;;;;;4.72;3.10;;;14.70;99.90;;;;;;5053274;28;20025;-73
2021/08/28 00:37:30;;;;;;;4.47;3.10;;;14.70;99.90;;;;;;5053651;28;20028;-74
2021/08/28 00:39:55;;;;;;;5.07;3.05;;;14.80;99.90;;;;;;5052462;28;20101;-74
2021/08/28 00:42:21;;;;;;;6.07;3.00;;;14.90;99.90;;;;;;5053614;28;20053;-74
2021/08/28 00:44:47;;;;;;;6.65;3.00;;;14.90;99.90;;;;;;5052790;28;20029;-73
2021/08/28 00:47:16;;;;;;;3.78;2.92;;;14.90;99.90;;;;;;5053544;28;20029;-73
2021/08/28 00:49:46;;;;;;;5.32;2.80;;;14.90;99.90;;;;;;5053480;28;20025;-73
2021/08/28 00:52:12;;;;;;;4.00;2.92;;;15.00;99.90;;;;;;5053524;28;20029;-73
2021/08/28 00:54:38;;;;;;;3.30;2.90;;;15.00;99.90;;;;;;5052983;28;20104;-74
2021/08/28 00:57:08;;;;;;;2.85;2.55;;;14.90;99.90;;;;;;5053540;28;20127;-74
2021/08/28 00:59:34;;;;;;;4.97;2.75;;;14.80;99.90;;;;;;5053221;28;20029;-74
2021/08/28 01:02:00;;;;;;;5.40;3.08;;;14.90;99.90;;;;;;5053763;28;20031;-72
2021/08/28 01:04:30;;;;;;;3.03;2.50;;;14.80;99.90;;;;;;5076312;28;20719;-74
2021/08/28 01:07:11;;;;;;;2.95;2.33;;;14.70;99.90;;;;;;5077676;28;20017;-73
2021/08/28 01:09:38;;;;;;;2.75;2.40;;;14.70;99.90;;;;;;5054241;28;20017;-73
2021/08/28 01:12:13;;;;;;;3.55;2.72;;;14.80;99.90;;;;;;5052727;28;20109;-72
2021/08/28 01:14:42;;;;;;;7.32;2.45;;;14.80;99.90;;;;;;5052455;28;20029;-73
2021/08/28 01:17:11;;;;;;;4.70;2.70;;;14.70;99.90;;;;;;5053271;28;20083;-73
2021/08/28 01:19:36;;;;;;;6.18;2.53;;;14.70;99.90;;;;;;5052979;28;20143;-73
2021/08/28 01:22:07;;;;;;;2.60;2.40;;;14.70;99.90;;;;;;5052917;28;20676;-74
2021/08/28 01:24:34;;;;;;;2.55;2.35;;;14.50;99.90;;;;;;5052044;28;20416;-73
2021/08/28 01:27:10;;;;;;;4.80;2.92;;;14.40;99.90;;;;;;5052394;28;20028;-72
2021/08/28 01:29:36;;;;;;;3.65;2.88;;;14.50;99.90;;;;;;5052518;28;20128;-73
2021/08/28 01:32:03;;;;;;;4.88;3.25;;;14.30;99.90;;;;;;5052878;28;20474;-73
2021/08/28 01:34:31;;;;;;;3.80;2.95;;;14.30;99.90;;;;;;5052071;28;20032;-73
2021/08/28 01:36:58;;;;;;;4.88;2.63;;;14.40;99.90;;;;;;5052455;28;20024;-73
2021/08/28 01:39:24;;;;;;;3.30;3.00;;;14.30;99.90;;;;;;5052129;28;20083;-73
2021/08/28 01:42:00;;;;;;;3.55;3.03;;;14.20;99.90;;;;;;5052261;28;20096;-73
2021/08/28 01:44:27;;;;;;;3.95;3.53;;;14.20;99.90;;;;;;5051818;28;20166;-74
2021/08/28 01:46:53;;;;;;;3.90;2.78;;;14.20;99.90;;;;;;5052338;28;20021;-74
2021/08/28 01:49:21;;;;;;;3.08;2.75;;;14.20;99.90;;;;;;5052165;28;20078;-72
2021/08/28 01:51:48;;;;;;;3.60;3.20;;;14.20;99.90;;;;;;5051527;28;20025;-74
2021/08/28 01:54:13;;;;;;;3.85;3.17;;;14.20;99.90;;;;;;5051422;28;20017;-74
2021/08/28 01:56:39;;;;;;;3.40;2.83;;;14.20;99.90;;;;;;5051149;28;20072;-74
2021/08/28 01:59:05;;;;;;;4.57;3.15;;;14.20;99.90;;;;;;5052031;28;20021;-74
2021/08/28 02:01:31;;;;;;;4.80;3.38;;;14.20;99.90;;;;;;5052147;28;20386;-74
2021/08/28 02:03:57;;;;;;;4.13;2.70;;;14.20;99.90;;;;;;5051926;28;20136;-74
2021/08/28 02:06:48;;;;;;;4.13;3.25;;;14.10;99.90;;;;;;5051702;28;20036;-73
2021/08/28 02:09:45;;;;;;;4.25;3.30;;;14.10;99.90;;;;;;5047978;28;20044;-74
2021/08/28 02:12:20;;;;;;;6.05;3.05;;;14.20;99.90;;;;;;5051895;28;20029;-74
2021/08/28 02:15:06;;;;;;;3.72;3.28;;;14.20;99.90;;;;;;5051133;28;20021;-74
2021/08/28 02:17:35;;;;;;;4.68;3.13;;;14.20;99.90;;;;;;5051981;28;20021;-74
2021/08/28 02:20:04;;;;;;;3.53;3.22;;;14.20;99.90;;;;;;5051575;28;20025;-73
2021/08/28 02:22:34;;;;;;;4.47;3.38;;;14.30;99.90;;;;;;5051689;28;20017;-74
2021/08/28 02:25:10;;;;;;;3.70;3.03;;;14.30;99.90;;;;;;5051085;28;20620;-74
2021/08/28 02:27:43;;;;;;;4.57;3.33;;;14.30;99.90;;;;;;5051513;28;20147;-73
2021/08/28 02:30:13;;;;;;;5.40;3.10;;;14.20;99.90;;;;;;5051145;28;20029;-72
2021/08/28 02:32:39;;;;;;;4.47;3.08;;;14.20;99.90;;;;;;5051554;28;20051;-74
2021/08/28 02:35:07;;;;;;;5.25;3.33;;;14.20;99.90;;;;;;5033032;28;20033;-73
2021/08/28 02:37:35;;;;;;;3.35;2.80;;;14.20;99.90;;;;;;5051081;28;20391;-73
2021/08/28 02:40:06;;;;;;;3.58;3.28;;;14.10;99.90;;;;;;5051191;28;20079;-74
2021/08/28 02:42:33;;;;;;;3.38;2.83;;;14.00;99.90;;;;;;5051212;28;20025;-73
2021/08/28 02:45:02;;;;;;;3.10;2.75;;;14.10;99.90;;;;;;5050738;28;20023;-73
2021/08/28 02:47:30;;;;;;;5.15;2.70;;;14.10;99.90;;;;;;5051517;28;20020;-73
2021/08/28 02:49:58;;;;;;;7.07;3.20;;;14.20;99.90;;;;;;5051131;28;20079;-74
2021/08/28 02:52:26;;;;;;;4.43;2.85;;;14.20;99.90;;;;;;5051197;28;20025;-74
2021/08/28 02:54:55;;;;;;;2.60;2.40;;;14.30;99.90;;;;;;5050730;28;20035;-74
2021/08/28 02:57:23;;;;;;;4.68;2.85;;;14.20;99.90;;;;;;5051166;28;20111;-73
2021/08/28 02:59:49;;;;;;;3.85;2.30;;;14.10;99.90;;;;;;5033017;28;20033;-74
2021/08/28 03:02:17;;;;;;;4.80;2.80;;;14.10;99.90;;;;;;5051285;28;20671;-73
2021/08/28 03:04:44;;;;;;;4.10;2.60;;;14.10;99.90;;;;;;5054117;28;20056;-73
2021/08/28 03:07:11;;;;;;;2.63;2.38;;;14.20;99.90;;;;;;5055413;28;20044;-73
2021/08/28 03:09:37;;;;;;;3.83;2.80;;;14.10;99.90;;;;;;5055158;28;20104;-74
2021/08/28 03:12:04;;;;;;;5.05;2.70;;;14.10;99.90;;;;;;5054956;28;20550;-73
2021/08/28 03:14:30;;;;;;;4.10;2.72;;;14.20;99.90;;;;;;5054535;28;20132;-73
2021/08/28 03:16:57;;;;;;;4.53;3.17;;;14.20;99.90;;;;;;5055136;28;20021;-74
2021/08/28 03:19:26;;;;;;;5.07;2.38;;;14.10;99.90;;;;;;5054948;28;20021;-73
2021/08/28 03:21:56;;;;;;;3.25;2.63;;;14.10;99.90;;;;;;5055198;28;20026;-73
2021/08/28 03:24:27;;;;;;;2.78;2.58;;;14.20;99.90;;;;;;5054509;28;20044;-73
2021/08/28 03:26:55;;;;;;;3.33;2.30;;;14.20;99.90;;;;;;5054753;28;20029;-73
2021/08/28 03:29:22;;;;;;;3.03;2.25;;;14.20;99.90;;;;;;5054634;28;20025;-74
2021/08/28 03:31:51;;;;;;;2.88;2.40;;;14.30;99.90;;;;;;5054799;28;20029;-73
2021/08/28 03:34:17;;;;;;;4.35;2.45;;;14.30;99.90;;;;;;5054375;28;20033;-73
2021/08/28 03:36:43;;;;;;;3.00;2.80;;;14.30;99.90;;;;;;5054710;28;20024;-73
2021/08/28 03:39:10;;;;;;;2.60;2.38;;;14.40;99.90;;;;;;5054577;28;20024;-73
2021/08/28 03:41:38;;;;;;;4.43;2.83;;;14.40;99.90;;;;;;5054458;28;20029;-74
2021/08/28 03:44:04;;;;;;;3.00;2.45;;;14.30;99.90;;;;;;5054613;28;20029;-73
2021/08/28 03:46:31;;;;;;;4.20;2.53;;;14.50;99.90;;;;;;5054048;28;20040;-74
2021/08/28 03:48:57;;;;;;;3.63;3.00;;;14.50;99.90;;;;;;5054959;28;20054;-73
2021/08/28 03:51:23;;;;;;;5.43;2.58;;;14.40;99.90;;;;;;5054629;28;20041;-73
2021/08/28 03:53:48;;;;;;;5.10;3.15;;;14.40;99.90;;;;;;5054663;28;20514;-73
2021/08/28 03:56:14;;;;;;;5.05;2.88;;;14.40;99.90;;;;;;5053529;28;20625;-74
2021/08/28 03:58:40;;;;;;;4.07;2.80;;;14.20;99.90;;;;;;5053935;28;20022;-74
2021/08/28 04:01:05;;;;;;;2.72;2.53;;;14.20;99.90;;;;;;5053872;28;20021;-73
2021/08/28 04:03:31;;;;;;;3.15;2.50;;;14.20;99.90;;;;;;5054330;28;20446;-73
2021/08/28 04:05:57;;;;;;;3.47;3.03;;;14.30;99.90;;;;;;5053637;28;20108;-74
2021/08/28 04:08:23;;;;;;;5.25;2.97;;;14.40;99.90;;;;;;5054055;28;20518;-72
2021/08/28 04:10:49;;;;;;;6.10;3.58;;;14.50;99.90;;;;;;5053904;28;20028;-73
2021/08/28 04:13:14;;;;;;;3.80;3.47;;;14.60;99.90;;;;;;5053806;28;20067;-72
2021/08/28 04:15:40;;;;;;;3.25;3.05;;;14.80;99.90;;;;;;5051065;28;20029;-73
2021/08/28 04:18:06;;;;;;;6.20;2.70;;;14.70;99.90;;;;;;5035148;28;20025;-72
2021/08/28 04:20:32;;;;;;;3.15;2.85;;;14.60;99.90;;;;;;5053862;28;20029;-73
2021/08/28 04:22:57;;;;;;;4.38;3.03;;;14.50;99.90;;;;;;5053915;28;20078;-72
2021/08/28 04:25:25;;;;;;;5.18;3.45;;;14.30;99.90;;;;;;5053373;28;20029;-72
2021/08/28 04:27:51;;;;;;;3.55;3.22;;;14.30;99.90;;;;;;5053706;28;20021;-72
2021/08/28 04:30:16;;;;;;;4.45;3.42;;;14.30;99.90;;;;;;5053021;28;20079;-72
2021/08/28 04:32:42;;;;;;;4.05;3.38;;;14.40;99.90;;;;;;5053944;28;20022;-72
2021/08/28 04:35:09;;;;;;;4.30;3.40;;;14.40;99.90;;;;;;5035116;28;20384;-72
2021/08/28 04:37:34;;;;;;;4.95;3.28;;;14.30;99.90;;;;;;5053945;28;20021;-71
2021/08/28 04:40:00;;;;;;;3.40;3.10;;;14.30;99.90;;;;;;5053787;28;20555;-72
2021/08/28 04:42:26;;;;;;;5.82;3.13;;;14.40;99.90;;;;;;5053527;28;20024;-72
2021/08/28 04:44:54;;;;;;;3.95;3.05;;;14.20;99.90;;;;;;5053115;28;20514;-72
2021/08/28 04:47:20;;;;;;;3.90;3.30;;;14.20;99.90;;;;;;5053303;28;20052;-72
2021/08/28 04:49:47;;;;;;;6.40;3.30;;;14.40;99.90;;;;;;5052530;28;20021;-72
2021/08/28 04:52:13;;;;;;;4.97;3.00;;;14.20;99.90;;;;;;5053353;28;20052;-72
2021/08/28 04:54:38;;;;;;;3.38;3.08;;;14.30;99.90;;;;;;5052810;28;20098;-71
2021/08/28 04:57:04;;;;;;;4.78;3.50;;;14.30;99.90;;;;;;5052199;28;20487;-71
2021/08/28 04:59:30;;;;;;;6.65;3.60;;;14.30;99.90;;;;;;5053235;28;20021;-71
2021/08/28 05:01:58;;;;;;;4.25;3.85;;;14.50;99.90;;;;;;5053191;28;20028;-71
2021/08/28 05:04:24;;;;;;;5.25;3.90;;;14.40;99.90;;;;;;5052695;28;20044;-72
2021/08/28 05:06:50;;;;;;;4.63;4.13;;;14.40;99.90;;;;;;5053037;28;20031;-71
2021/08/28 05:09:16;;;;;;;6.13;4.38;;;14.30;99.90;;;;;;5053028;28;20091;-70
2021/08/28 05:11:41;;;;;;;4.93;4.32;;;14.40;99.90;;;;;;5052809;28;20491;-70
2021/08/28 05:14:07;;;;;;;7.47;5.55;;;14.50;99.90;;;;;;5038398;28;20081;-80
2021/08/28 05:16:32;;;;;;;8.93;5.35;;;14.70;99.90;;;;;;5049117;28;20020;-78
2021/08/28 05:18:58;;;;;;;7.40;4.35;;;14.70;99.90;;;;;;5053153;28;20028;-77
2021/08/28 05:21:24;;;;;;;4.30;4.00;;;14.60;99.90;;;;;;5034941;28;20063;-78
2021/08/28 05:23:50;;;;;;;4.47;4.07;;;14.50;99.90;;;;;;5052743;28;20028;-77
2021/08/28 05:26:15;;;;;;;6.40;4.28;;;14.30;99.90;;;;;;5051347;28;20025;-76
2021/08/28 05:28:41;;;;;;;6.10;4.80;;;14.20;99.90;;;;;;5052670;28;20032;-76
2021/08/28 05:31:06;;;;;;;7.32;4.53;;;14.20;99.90;;;;;;5052603;28;20044;-76
2021/08/28 05:33:32;;;;;;;4.85;4.43;;;14.20;99.90;;;;;;5040023;28;20018;-76
2021/08/28 05:35:58;;;;;;;6.93;4.70;;;14.20;99.90;;;;;;5031935;28;20025;-76
2021/08/28 05:38:23;;;;;;;7.03;5.22;;;14.30;99.90;;;;;;5015122;28;20045;-76
2021/08/28 05:40:49;;;;;;;5.78;5.30;;;14.50;99.90;;;;;;5032332;28;20118;-76
2021/08/28 05:43:15;;;;;;;6.70;5.88;;;14.40;99.90;;;;;;5041964;28;20073;-76
2021/08/28 05:45:40;;;;;;;7.25;6.55;;;14.40;99.90;;;;;;5051707;28;20040;-76
2021/08/28 05:48:06;;;;;;;8.50;6.00;;;14.50;99.90;;;;;;5060144;28;20036;-77
2021/08/28 05:50:31;;;;;;;8.32;6.28;;;14.60;99.90;;;;;;5055562;28;20025;-77
2021/08/28 05:52:57;;;;;;;7.13;6.50;;;14.70;99.90;;;;;;5068428;28;20112;-76
2021/08/28 05:55:23;;;;;;;9.15;6.00;;;14.70;99.90;;;;;;5066998;28;20017;-77
2021/08/28 05:57:48;;;;;;;6.78;6.05;;;14.60;99.90;;;;;;5074640;28;20033;-77
2021/08/28 06:00:14;;;;;;;6.38;5.70;;;14.60;99.90;;;;;;5062679;28;20078;-78
2021/08/28 06:02:40;;;;;;;5.88;5.38;;;14.70;99.90;;;;;;5055327;28;20463;-79
2021/08/28 06:05:10;;;;;;;6.53;5.93;;;14.90;99.90;;;;;;5054931;28;20032;-78
2021/08/28 06:07:36;;;;;;;7.43;6.55;;;14.90;99.90;;;;;;5062579;28;20036;-77
2021/08/28 06:10:04;;;;;;;6.88;6.15;;;15.00;99.90;;;;;;5066738;28;20029;-76
2021/08/28 06:12:30;;;;;;;6.18;5.30;;;15.10;99.90;;;;;;5054878;28;20017;-78
2021/08/28 06:14:56;;;;;;;8.20;6.70;;;15.10;99.90;;;;;;5053994;28;20028;-79
2021/08/28 06:17:21;;;;;;;6.75;6.07;;;15.20;99.90;;;;;;5053557;28;20017;-77
2021/08/28 06:19:47;;;;;;;9.63;6.05;;;15.30;99.90;;;;;;5053538;28;20383;-78
2021/08/28 06:22:12;;;;;;;11.02;7.40;;;15.30;99.90;;;;;;5053078;28;20152;-79
2021/08/28 06:24:38;;;;;;;7.50;6.72;;;15.40;99.90;;;;;;5052627;28;20287;-79
2021/08/28 06:27:04;;;;;;;7.93;7.13;;;15.30;99.90;;;;;;5033552;28;20100;-79
2021/08/28 06:29:29;;;;;;;11.65;8.23;;;15.20;99.90;;;;;;5033102;28;20033;-78
2021/08/28 06:31:56;;;;;;;8.55;6.68;;;15.20;99.90;;;;;;5033220;28;20024;-76
2021/08/28 06:34:22;;;;;;;9.68;7.72;;;15.10;99.90;;;;;;5033178;28;20096;-77
2021/08/28 06:36:47;;;;;;;8.55;6.88;;;14.80;99.90;;;;;;5013756;28;20487;-77
2021/08/28 06:39:13;;;;;;;11.13;7.97;;;14.60;99.90;;;;;;5030481;28;20045;-76
2021/08/28 06:41:39;;;;;;;12.20;7.82;;;14.50;99.90;;;;;;5013654;28;20025;-77
2021/08/28 06:44:05;;;;;;;9.13;7.70;;;14.50;99.90;;;;;;5031653;28;20468;-76
2021/08/28 06:46:30;;;;;;;10.15;7.18;;;14.60;99.90;;;;;;5030895;28;20033;-77
2021/08/28 06:48:57;;;;;;;8.07;6.70;;;14.60;99.90;;;;;;5031319;28;20400;-77
2021/08/28 06:51:23;;;;;;;8.38;7.57;;;14.70;99.90;;;;;;5031413;28;20022;-78
2021/08/28 06:53:49;;;;;;;5.97;5.35;;;14.80;99.90;;;;;;5031700;28;20029;-77
2021/08/28 06:56:16;;;;;;;6.60;5.72;;;14.70;99.90;;;;;;5045056;28;20052;-78
2021/08/28 06:58:42;;;;;;;6.50;5.82;;;14.60;99.90;;;;;;5052975;28;20094;-78
2021/08/28 07:01:07;;;;;;;6.63;5.38;;;14.60;99.90;;;;;;5051722;28;20021;-77
2021/08/28 07:03:33;;;;;;;6.90;5.40;;;14.60;99.90;;;;;;5054566;28;20471;-79
2021/08/28 07:05:59;;;;;;;5.22;4.32;;;14.70;99.90;;;;;;5050990;28;20029;-78
2021/08/28 07:08:24;;;;;;;4.95;4.55;;;14.60;99.90;;;;;;5052994;28;20052;-78
2021/08/28 07:10:50;;;;;;;8.10;5.45;;;14.70;99.90;;;;;;5053610;28;20055;-78
2021/08/28 07:13:16;;;;;;;6.80;6.10;;;14.80;99.90;;;;;;5054294;28;20032;-78
2021/08/28 07:15:41;;;;;;;6.25;5.75;;;15.10;99.90;;;;;;5052889;28;20029;-77
2021/08/28 07:18:09;;;;;;;6.07;5.57;;;15.10;99.90;;;;;;5053898;28;20108;-78
2021/08/28 07:20:35;;;;;;;6.18;5.13;;;15.10;99.90;;;;;;5053340;28;20051;-78
2021/08/28 07:23:01;;;;;;;4.90;4.50;;;14.90;99.90;;;;;;5053559;28;20040;-77
2021/08/28 07:25:27;;;;;;;4.95;4.45;;;14.70;99.90;;;;;;5052242;28;20033;-78
2021/08/28 07:27:53;;;;;;;4.80;4.30;;;14.90;99.90;;;;;;5052399;28;20036;-78
2021/08/28 07:30:19;;;;;;;6.57;4.32;;;14.80;99.90;;;;;;5051666;28;20029;-77
2021/08/28 07:32:45;;;;;;;5.57;4.78;;;14.80;99.90;;;;;;5051907;28;20021;-77
2021/08/28 07:35:11;;;;;;;5.65;5.03;;;15.00;99.90;;;;;;5050224;28;20013;-76
2021/08/28 07:37:37;;;;;;;6.78;5.97;;;15.20;99.90;;;;;;5050834;28;20029;-76
2021/08/28 07:40:04;;;;;;;7.55;5.65;;;15.30;99.90;;;;;;5030976;28;20025;-76
2021/08/28 07:42:30;;;;;;;7.93;6.00;;;15.50;99.90;;;;;;5030755;28;20072;-77
2021/08/28 07:44:56;;;;;;;8.63;6.85;;;15.70;99.90;;;;;;5030803;28;20476;-78
2021/08/28 07:47:21;;;;;;;9.55;6.22;;;16.00;99.90;;;;;;5030947;28;20017;-76
2021/08/28 07:49:47;;;;;;;6.00;5.50;;;15.80;99.90;;;;;;5032645;28;20028;-77
2021/08/28 07:52:14;;;;;;;7.97;7.18;;;15.80;99.90;;;;;;5035093;28;20029;-78
2021/08/28 07:54:40;;;;;;;8.02;7.28;;;15.80;99.90;;;;;;5036039;28;20032;-78
2021/08/28 07:57:05;;;;;;;8.40;7.60;;;15.60;99.90;;;;;;5055959;28;20021;-78
2021/08/28 07:59:31;;;;;;;7.75;6.72;;;15.30;99.90;;;;;;5056120;28;20021;-77
2021/08/28 08:01:57;;;;;;;8.15;7.35;;;15.30;99.90;;;;;;5055477;28;20032;-80
2021/08/28 08:04:22;;;;;;;8.00;7.20;;;15.40;99.90;;;;;;5055958;28;20064;-78
2021/08/28 08:06:48;;;;;;;9.70;8.77;;;15.30;99.90;;;;;;5055784;28;20049;-78
2021/08/28 08:09:15;;;;;;;7.88;7.18;;;15.40;99.90;;;;;;5055712;28;20084;-78
2021/08/28 08:11:41;;;;;;;10.75;6.90;;;15.70;99.90;;;;;;5057020;28;20521;-78
2021/08/28 08:14:07;;;;;;;8.35;7.50;;;15.60;99.90;;;;;;5056056;28;20025;-79
2021/08/28 08:16:32;;;;;;;9.20;7.25;;;15.60;99.90;;;;;;5057699;28;20029;-78
2021/08/28 08:18:58;;;;;;;9.45;8.32;;;15.60;99.90;;;;;;5056804;28;20091;-77
2021/08/28 08:21:24;;;;;;;11.55;8.45;;;15.70;99.90;;;;;;5055014;28;20110;-77
2021/08/28 08:23:50;;;;;;;8.32;7.38;;;15.70;99.90;;;;;;5059131;28;20052;-78
2021/08/28 08:26:16;;;;;;;21.10;9.25;;;15.70;99.90;;;;;;5056734;28;20088;-78
2021/08/28 08:28:41;;;;;;;19.13;7.93;;;15.70;99.90;;;;;;5056898;28;20029;-75
2021/08/28 08:31:07;;;;;;;13.40;9.73;;;15.70;99.90;;;;;;5054884;28;20033;-77
2021/08/28 08:33:33;;;;;;;8.68;7.72;;;15.80;99.90;;;;;;5056518;28;20097;-79
2021/08/28 08:35:58;;;;;;;32.15;9.65;;;15.80;99.90;;;;;;5054735;28;20017;-78
2021/08/28 08:38:24;;;;;;;9.45;7.15;;;15.80;99.90;;;;;;5055661;28;20029;-77
2021/08/28 08:40:50;;;;;;;5.80;5.40;;;15.80;99.90;;;;;;5055156;28;20379;-76
2021/08/28 08:43:16;;;;;;;7.95;5.78;;;15.80;99.90;;;;;;5053799;28;20028;-75
2021/08/28 08:45:44;;;;;;;10.30;5.43;;;16.20;99.90;;;;;;5052880;28;20021;-76
2021/08/28 08:48:11;;;;;;;7.57;5.60;;;16.40;99.90;;;;;;5053447;28;20029;-77
2021/08/28 08:50:37;;;;;;;5.97;4.13;;;16.40;99.90;;;;;;5053181;28;20072;-77
2021/08/28 08:53:04;;;;;;;5.70;4.68;;;16.90;99.90;;;;;;5053531;28;20104;-78
2021/08/28 08:55:31;;;;;;;4.57;4.18;;;17.30;99.90;;;;;;5052380;28;20071;-74
2021/08/28 08:57:59;;;;;;;4.95;3.17;;;18.00;99.90;;;;;;5053296;28;20033;-76
2021/08/28 09:00:25;;;;;;;3.33;3.05;;;18.40;99.90;;;;;;5052472;28;20052;-73
2021/08/28 09:02:51;;;;;;;3.35;2.80;;;19.60;99.90;;;;;;5053091;28;20090;-76
2021/08/28 09:05:17;;;;;;;3.42;3.22;;;20.10;99.90;;;;;;5053308;28;20577;-77
2021/08/28 09:07:43;;;;;;;3.35;3.05;;;19.50;99.90;;;;;;5053246;28;20032;-76
2021/08/28 09:10:09;;;;;;;4.40;2.65;;;19.00;99.90;;;;;;5052705;28;20078;-74
2021/08/28 09:12:37;;;;;;;3.03;2.70;;;18.70;99.90;;;;;;5052888;28;20028;-74
2021/08/28 09:15:04;;;;;;;4.30;2.58;;;18.80;99.90;;;;;;5053943;28;20025;-73
2021/08/28 09:17:30;;;;;;;4.60;3.05;;;18.20;99.90;;;;;;5052673;28;20029;-75
2021/08/28 09:19:56;;;;;;;3.22;2.67;;;18.30;99.90;;;;;;5053595;28;20017;-75
2021/08/28 09:22:29;;;;;;;14.52;4.03;;;18.10;99.90;;;;;;5053512;28;20025;-75
2021/08/28 09:25:07;;;;;;;6.13;2.97;;;17.90;99.90;;;;;;5053196;28;20029;-76
2021/08/28 09:27:37;;;;;;;3.33;3.03;;;17.70;99.90;;;;;;5053620;28;20025;-76
2021/08/28 09:30:14;;;;;;;4.13;3.13;;;17.70;99.90;;;;;;5053442;28;20041;-75
2021/08/28 09:32:49;;;;;;;4.20;2.80;;;17.40;99.90;;;;;;5053758;28;20414;-76
2021/08/28 09:35:15;;;;;;;3.85;3.25;;;17.50;99.90;;;;;;5053933;28;20104;-75
2021/08/28 09:37:42;;;;;;;3.63;3.30;;;17.50;99.90;;;;;;5061730;28;20375;-76
2021/08/28 09:40:08;;;;;;;3.60;3.30;;;17.50;99.90;;;;;;5069620;28;20032;-76
2021/08/28 09:42:37;;;;;;;3.65;3.30;;;17.70;99.90;;;;;;5073200;28;20005;-77
2021/08/28 09:45:09;;;;;;;5.22;3.20;;;18.00;99.90;;;;;;5065871;28;20120;-76
2021/08/28 09:47:34;;;;;;;4.43;2.70;;;17.80;99.90;;;;;;5053783;28;20499;-77
2021/08/28 09:50:00;;;;;;;46.17;7.40;;;17.80;99.90;;;;;;5052847;28;20067;-76
2021/08/28 09:52:27;;;;;;;20.17;5.00;;;17.50;99.90;;;;;;5052193;28;20029;-77
2021/08/28 09:54:54;;;;;;;4.72;3.33;;;17.70;99.90;;;;;;5051040;28;20039;-76
2021/08/28 09:57:27;;;;;;;4.68;3.33;;;17.70;99.90;;;;;;5051712;28;20499;-77
2021/08/28 09:59:58;;;;;;;11.27;3.25;;;17.90;99.90;;;;;;5034997;28;20490;-76
2021/08/28 10:02:24;;;;;;;9.70;3.80;;;17.70;99.90;;;;;;5052292;28;20037;-77
2021/08/28 10:04:51;;;;;;;6.30;3.63;;;17.80;99.90;;;;;;5051487;28;20036;-74
2021/08/28 10:07:28;;;;;;;4.38;3.97;;;18.10;99.90;;;;;;5045533;28;20049;-76
2021/08/28 10:10:03;;;;;;;3.67;3.17;;;18.30;99.90;;;;;;5043091;28;20025;-77
2021/08/28 10:12:31;;;;;;;3.75;3.08;;;17.80;99.90;;;;;;5031811;28;20361;-77
2021/08/28 10:14:58;;;;;;;5.40;2.83;;;17.30;99.90;;;;;;5014103;28;20091;-77
2021/08/28 10:17:24;;;;;;;2.92;2.72;;;17.60;99.90;;;;;;5032509;28;20021;-77
2021/08/28 10:19:52;;;;;;;3.58;2.85;;;17.90;99.90;;;;;;5029864;28;20488;-76
2021/08/28 10:22:24;;;;;;;3.55;2.30;;;17.70;99.90;;;;;;5031587;28;20037;-77
2021/08/28 10:24:55;;;;;;;4.03;2.70;;;17.90;99.90;;;;;;5040922;28;20040;-76
2021/08/28 10:27:25;;;;;;;3.63;3.17;;;17.90;99.90;;;;;;5051427;28;20021;-75
2021/08/28 10:29:52;;;;;;;3.55;3.25;;;17.20;99.90;;;;;;5032122;28;20033;-76
2021/08/28 10:32:18;;;;;;;2.78;2.58;;;17.40;99.90;;;;;;5051730;28;20052;-76
2021/08/28 10:34:44;;;;;;;3.15;2.80;;;17.40;99.90;;;;;;5051056;28;20513;-76
2021/08/28 10:37:09;;;;;;;3.30;3.00;;;17.40;99.90;;;;;;5051935;28;20056;-76
2021/08/28 10:39:36;;;;;;;2.78;2.58;;;17.40;99.90;;;;;;5051821;28;20029;-76
2021/08/28 10:42:06;;;;;;;3.80;2.78;;;17.40;99.90;;;;;;5051798;28;20384;-76
2021/08/28 10:44:32;;;;;;;3.22;2.67;;;17.30;99.90;;;;;;5050993;28;20025;-76
2021/08/28 10:46:58;;;;;;;2.83;2.60;;;17.10;99.90;;;;;;5051793;28;20376;-76
2021/08/28 10:49:24;;;;;;;3.70;3.17;;;16.80;99.90;;;;;;5051751;28;20036;-76
2021/08/28 10:51:55;;;;;;;2.65;2.40;;;16.90;99.90;;;;;;5051891;28;20036;-76
2021/08/28 10:54:30;;;;;;;11.00;2.58;;;17.10;99.90;;;;;;5051585;28;20426;-76
2021/08/28 10:57:00;;;;;;;11.20;1.98;;;17.20;99.90;;;;;;5052066;28;20379;-76
2021/08/28 10:59:34;;;;;;;3.25;1.88;;;16.50;99.90;;;;;;5051391;28;20045;-76
2021/08/28 11:02:09;;;;;;;2.22;1.90;;;16.30;99.90;;;;;;5051801;28;20025;-75
2021/08/28 11:04:43;;;;;;;2.30;1.70;;;16.10;99.90;;;;;;5050977;28;20493;-76
2021/08/28 11:07:26;;;;;;;3.63;1.73;;;15.90;99.90;;;;;;5051613;28;20043;-76
2021/08/28 11:10:25;;;;;;;2.72;1.67;;;16.00;99.90;;;;;;5051473;28;20021;-76
2021/08/28 11:13:03;;;;;;;2.30;1.45;;;16.10;99.90;;;;;;4996832;28;20095;-76
2021/08/28 11:15:31;;;;;;;2.10;1.50;;;15.90;99.90;;;;;;5051848;28;20020;-76
2021/08/28 11:18:01;;;;;;;6.05;1.88;;;15.80;99.90;;;;;;5052640;28;20024;-76
2021/08/28 11:20:32;;;;;;;2.00;1.90;;;15.90;99.90;;;;;;5034118;28;20021;-77
2021/08/28 11:23:01;;;;;;;2.78;2.58;;;15.80;99.90;;;;;;5031964;28;20025;-77
2021/08/28 11:25:32;;;;;;;5.15;2.78;;;16.10;99.90;;;;;;5034546;28;20041;-77
2021/08/28 11:27:59;;;;;;;1.88;1.77;;;16.10;99.90;;;;;;5035577;28;20038;-77
2021/08/28 11:30:46;;;;;;;2.17;1.98;;;15.90;99.90;;;;;;5039675;28;20029;-77
2021/08/28 11:33:27;;;;;;;2.05;1.95;;;16.10;99.90;;;;;;5056130;28;20025;-78
2021/08/28 11:35:54;;;;;;;2.15;1.95;;;16.40;99.90;;;;;;5036720;28;20028;-76
2021/08/28 11:38:23;;;;;;;2.83;1.90;;;16.10;99.90;;;;;;5056006;28;20025;-77
2021/08/28 11:41:25;;;;;;;2.38;2.00;;;16.00;99.90;;;;;;5055820;28;20021;-76
2021/08/28 11:43:55;;;;;;;2.20;1.55;;;15.90;99.90;;;;;;5023821;28;20029;-76
2021/08/28 11:46:29;;;;;;;1.77;1.60;;;15.70;99.90;;;;;;5065213;28;20032;-77
2021/08/28 11:48:56;;;;;;;1.65;1.55;;;15.60;99.90;;;;;;5049428;28;20124;-78
2021/08/28 11:51:24;;;;;;;2.95;2.03;;;15.60;99.90;;;;;;5067749;28;20055;-77
2021/08/28 11:53:55;;;;;;;2.45;1.88;;;15.90;99.90;;;;;;5063357;28;20017;-77
2021/08/28 11:56:23;;;;;;;21.83;3.75;;;16.10;99.90;;;;;;5064151;28;20017;-77
2021/08/28 11:58:55;;;;;;;63.20;6.88;;;16.00;99.90;;;;;;5060870;28;20538;-77
2021/08/28 12:01:38;;;;;;;3.17;2.38;;;16.10;99.90;;;;;;5065060;28;20025;-76
2021/08/28 12:04:09;;;;;;;6.45;1.98;;;16.40;99.90;;;;;;5065839;28;20035;-78
2021/08/28 12:06:40;;;;;;;4.40;2.03;;;16.60;99.90;;;;;;5068925;28;20028;-77
2021/08/28 12:09:07;;;;;;;5.95;1.90;;;16.30;99.90;;;;;;5068655;28;20055;-77
2021/08/28 12:11:35;;;;;;;2.03;1.92;;;16.20;99.90;;;;;;5067884;28;20120;-77
2021/08/28 12:14:03;;;;;;;2.10;2.00;;;16.30;99.90;;;;;;5069941;28;20025;-77
2021/08/28 12:16:35;;;;;;;1.60;1.42;;;16.30;99.90;;;;;;5066301;28;20052;-77
2021/08/28 12:19:05;;;;;;;1.30;1.25;;;16.40;99.90;;;;;;5062667;28;20021;-76
2021/08/28 12:21:34;;;;;;;1.73;1.40;;;16.20;99.90;;;;;;5061608;28;20040;-78
2021/08/28 12:24:21;;;;;;;1.73;1.40;;;16.40;99.90;;;;;;5062355;28;20025;-76
2021/08/28 12:26:58;;;;;;;2.15;1.50;;;16.50;99.90;;;;;;5064178;28;20048;-78
2021/08/28 12:29:40;;;;;;;1.80;1.70;;;16.90;99.90;;;;;;5068238;28;20029;-78
2021/08/28 12:32:19;;;;;;;1.58;1.48;;;17.30;99.90;;;;;;5070391;28;20021;-78
2021/08/28 12:34:49;;;;;;;1.33;1.17;;;17.50;99.90;;;;;;5072881;28;20017;-80
2021/08/28 12:37:17;;;;;;;1.05;0.95;;;17.50;99.90;;;;;;5070756;28;20072;-80
2021/08/28 12:39:47;;;;;;;1.25;1.10;;;17.20;99.90;;;;;;5072760;28;20032;-79
2021/08/28 12:42:15;;;;;;;1.30;1.20;;;16.30;99.90;;;;;;5110142;23;20024;-81
2021/08/28 12:44:44;;;;;;;2.88;1.27;;;15.90;99.90;;;;;;5066259;28;20109;-81
2021/08/28 12:47:11;;;;;;;5.32;1.40;;;15.90;99.90;;;;;;5061633;28;20021;-81
2021/08/28 12:49:40;;;;;;;1.75;1.65;;;15.80;99.90;;;;;;5048729;28;20067;-82